Peakville, New York
Current Conditions -  °F | °C
As of 6:55 AM on Thursday 27 Nov 2014 (Local Time) from KMSV Reporting Station
Broken Clouds Broken Clouds  
Wind Chill: 21°   Ceiling: 7500
Heat Index: 28°   Visibility: 10mi
Dew Point: 25°   Wind: 7mph
Humidity: 86%   Direction: 280°W
Pressure: 29.92"   Gusts: NA
Location:  41.9811°N, 75.0952°W
Report Text: KMSV 271155Z AUTO 28006KT 10SM SCT050 BKN075 BKN095 M02/M04 A2992 RMK AO1 765533 11010 21030 52010
Loading
Personal Weather Stations






























Interactive Weather Map New forecast layout! Learn more

10-Day Weather Forecast

Advertisements
Track Severe Weather on mobile